Time;durP1;ratioP1;P1;durP2;ratioP2;P2;SDS_P1;SDS_P2;PMS_P1;PMS_P2;Temp;Humidity;BMP_temperature;BMP_pressure;BME280_temperature;BME280_humidity;BME280_pressure;Samples;Min_cycle;Max_cycle;Signal;HPM_P1;HPM_P2
2024/01/15 00:01:23;;;;;;;26.67;16.40;;;-1.30;99.90;;;;;;5010954;28;20232;-63
2024/01/15 00:03:50;;;;;;;29.02;17.05;;;-1.30;99.90;;;;;;5013064;28;20287;-63
2024/01/15 00:06:19;;;;;;;31.45;16.88;;;-1.20;99.90;;;;;;5013277;28;20323;-63
2024/01/15 00:08:45;;;;;;;27.05;16.58;;;-1.30;99.90;;;;;;5013623;28;20244;-63
2024/01/15 00:11:12;;;;;;;30.95;15.77;;;-1.40;99.90;;;;;;5013196;28;20249;-63
2024/01/15 00:13:39;;;;;;;31.30;16.92;;;-1.40;99.90;;;;;;5013561;28;20214;-63
2024/01/15 00:16:06;;;;;;;29.85;15.50;;;-1.30;99.90;;;;;;5013194;28;20809;-63
2024/01/15 00:18:33;;;;;;;38.72;16.58;;;-1.30;99.90;;;;;;5012854;28;20214;-62
2024/01/15 00:21:00;;;;;;;29.27;16.80;;;-1.40;99.90;;;;;;5012732;28;20200;-63
2024/01/15 00:23:28;;;;;;;25.58;16.00;;;-1.40;99.90;;;;;;5013540;28;20646;-62
2024/01/15 00:25:55;;;;;;;29.60;17.52;;;-1.40;99.90;;;;;;5012582;28;20222;-63
2024/01/15 00:28:21;;;;;;;26.55;14.63;;;-1.40;99.90;;;;;;5011785;28;20657;-63
2024/01/15 00:30:48;;;;;;;28.20;16.92;;;-1.40;99.90;;;;;;5009962;28;20215;-63
2024/01/15 00:33:15;;;;;;;31.08;15.48;;;-1.40;99.90;;;;;;5011187;28;20781;-62
2024/01/15 00:35:42;;;;;;;30.92;15.98;;;-1.50;99.90;;;;;;5012348;28;20215;-62
2024/01/15 00:38:09;;;;;;;24.27;14.20;;;-1.50;99.90;;;;;;5012976;28;20232;-63
2024/01/15 00:40:37;;;;;;;30.17;16.38;;;-1.50;99.90;;;;;;5012680;28;20295;-62
2024/01/15 00:43:04;;;;;;;32.65;16.65;;;-1.50;99.90;;;;;;5012939;28;20196;-63
2024/01/15 00:45:31;;;;;;;31.77;16.65;;;-1.40;99.90;;;;;;5011701;28;20299;-63
2024/01/15 00:47:59;;;;;;;29.15;17.45;;;-1.40;99.90;;;;;;5010835;28;20282;-62
2024/01/15 00:50:26;;;;;;;27.63;15.93;;;-1.40;99.90;;;;;;5012780;28;20303;-63
2024/01/15 00:52:53;;;;;;;24.67;14.23;;;-1.40;99.90;;;;;;5012952;28;20255;-63
2024/01/15 00:55:19;;;;;;;27.48;16.05;;;-1.40;99.90;;;;;;5012937;28;20218;-63
2024/01/15 00:57:48;;;;;;;29.42;16.42;;;-1.40;99.90;;;;;;5012772;28;20227;-62
2024/01/15 01:00:15;;;;;;;29.52;14.98;;;-1.40;99.90;;;;;;5012658;28;20246;-62
2024/01/15 01:02:42;;;;;;;34.50;16.98;;;-1.40;99.90;;;;;;5012453;28;20211;-62
2024/01/15 01:05:09;;;;;;;36.78;16.33;;;-1.40;99.90;;;;;;5012780;28;20204;-62
2024/01/15 01:07:36;;;;;;;35.05;17.60;;;-1.40;99.90;;;;;;5012742;28;20316;-63
2024/01/15 01:10:03;;;;;;;25.05;15.90;;;-1.50;99.90;;;;;;5012471;28;20207;-63
2024/01/15 01:12:30;;;;;;;28.40;15.43;;;-1.50;99.90;;;;;;5012513;28;20228;-63
2024/01/15 01:14:58;;;;;;;37.92;18.05;;;-1.50;99.90;;;;;;5012340;28;20215;-63
2024/01/15 01:17:25;;;;;;;31.63;16.77;;;-1.50;99.90;;;;;;5012342;28;20232;-62
2024/01/15 01:19:52;;;;;;;31.83;15.85;;;-1.50;99.90;;;;;;5011884;28;20247;-63
2024/01/15 01:22:19;;;;;;;25.42;14.73;;;-1.50;99.90;;;;;;5012555;28;20203;-62
2024/01/15 01:24:46;;;;;;;38.80;17.80;;;-1.50;99.90;;;;;;5012307;28;20203;-62
2024/01/15 01:27:13;;;;;;;32.30;17.05;;;-1.50;99.90;;;;;;5012267;28;20246;-63
2024/01/15 01:29:39;;;;;;;36.30;17.27;;;-1.50;99.90;;;;;;5011874;28;20686;-63
2024/01/15 01:32:08;;;;;;;27.55;15.48;;;-1.50;99.90;;;;;;5012379;28;20322;-62
2024/01/15 01:34:42;;;;;;;38.33;18.05;;;-1.40;99.90;;;;;;5011145;28;20208;-61
2024/01/15 01:37:08;;;;;;;38.42;18.50;;;-1.40;99.90;;;;;;5011945;28;20242;-62
2024/01/15 01:39:35;;;;;;;35.53;15.23;;;-1.40;99.90;;;;;;5011563;28;20203;-62
2024/01/15 01:42:02;;;;;;;32.67;15.80;;;-1.40;99.90;;;;;;5012048;28;20294;-63
2024/01/15 01:44:29;;;;;;;31.20;17.67;;;-1.40;99.90;;;;;;5011972;28;20294;-63
2024/01/15 01:46:56;;;;;;;27.92;14.45;;;-1.40;99.90;;;;;;5011744;28;20649;-63
2024/01/15 01:49:25;;;;;;;34.20;18.17;;;-1.40;99.90;;;;;;5011616;28;20290;-63
2024/01/15 01:51:52;;;;;;;32.08;15.63;;;-1.40;99.90;;;;;;5011873;28;20228;-62
2024/01/15 01:54:21;;;;;;;24.20;16.35;;;-1.40;99.90;;;;;;5012015;28;20213;-62
2024/01/15 01:56:49;;;;;;;30.50;15.38;;;-1.40;99.90;;;;;;5011602;28;20250;-62
2024/01/15 01:59:16;;;;;;;27.00;15.65;;;-1.40;99.90;;;;;;5010966;28;20294;-62
2024/01/15 02:01:45;;;;;;;29.45;15.90;;;-1.40;99.90;;;;;;5011720;28;20584;-63
2024/01/15 02:04:12;;;;;;;23.60;15.30;;;-1.30;99.90;;;;;;5011731;28;20298;-62
2024/01/15 02:06:40;;;;;;;23.52;13.80;;;-1.30;99.90;;;;;;5011924;28;20249;-62
2024/01/15 02:09:09;;;;;;;22.48;15.15;;;-1.30;99.90;;;;;;5015591;28;20738;-62
2024/01/15 02:11:36;;;;;;;30.30;15.75;;;-1.30;99.90;;;;;;5012600;28;20224;-62
2024/01/15 02:14:04;;;;;;;26.25;13.82;;;-1.30;99.90;;;;;;5016032;28;20302;-62
2024/01/15 02:16:30;;;;;;;26.35;14.07;;;-1.30;99.90;;;;;;5019746;28;20231;-62
2024/01/15 02:18:57;;;;;;;23.83;15.02;;;-1.20;99.90;;;;;;5015667;28;20203;-63
2024/01/15 02:21:26;;;;;;;18.95;11.85;;;-1.20;99.90;;;;;;5011599;28;20226;-63
2024/01/15 02:23:54;;;;;;;28.25;15.63;;;-1.20;99.90;;;;;;5011553;28;20208;-63
2024/01/15 02:26:21;;;;;;;23.75;11.73;;;-1.20;99.90;;;;;;5011691;28;20243;-63
2024/01/15 02:28:49;;;;;;;21.85;12.88;;;-1.20;99.90;;;;;;5011553;28;20211;-63
2024/01/15 02:31:15;;;;;;;20.08;13.95;;;-1.20;99.90;;;;;;5011308;28;20215;-62
2024/01/15 02:33:43;;;;;;;24.85;12.82;;;-1.20;99.90;;;;;;5011626;28;20231;-64
2024/01/15 02:36:11;;;;;;;23.15;11.27;;;-1.10;99.90;;;;;;5011431;28;20235;-63
2024/01/15 02:38:38;;;;;;;17.80;11.88;;;-1.10;99.90;;;;;;5011720;28;20652;-63
2024/01/15 02:41:06;;;;;;;21.08;13.35;;;-1.10;99.90;;;;;;5011507;28;20286;-62
2024/01/15 02:43:33;;;;;;;24.90;13.32;;;-1.10;99.90;;;;;;5011425;28;20200;-62
2024/01/15 02:46:00;;;;;;;28.52;12.32;;;-1.00;99.90;;;;;;5011458;28;20207;-63
2024/01/15 02:48:26;;;;;;;18.15;10.90;;;-1.00;99.90;;;;;;5011108;28;20270;-63
2024/01/15 02:50:53;;;;;;;19.25;12.38;;;-1.00;99.90;;;;;;5010965;28;20212;-62
2024/01/15 02:53:20;;;;;;;19.83;11.88;;;-1.00;99.90;;;;;;5011585;28;20240;-63
2024/01/15 02:55:47;;;;;;;18.05;13.18;;;-0.90;99.90;;;;;;5011248;28;20299;-63
2024/01/15 02:58:15;;;;;;;21.58;14.20;;;-0.90;99.90;;;;;;5011250;28;20304;-63
2024/01/15 03:00:42;;;;;;;19.08;11.45;;;-0.90;99.90;;;;;;5011123;28;20295;-63
2024/01/15 03:03:09;;;;;;;20.90;13.48;;;-0.90;99.90;;;;;;5011021;28;20235;-63
2024/01/15 03:05:36;;;;;;;24.23;13.45;;;-0.90;99.90;;;;;;5011119;28;20208;-63
2024/01/15 03:08:02;;;;;;;13.25;9.60;;;-0.90;99.90;;;;;;5011106;28;20609;-63
2024/01/15 03:10:29;;;;;;;17.33;12.52;;;-0.90;99.90;;;;;;5013492;28;20208;-63
2024/01/15 03:12:56;;;;;;;18.02;11.70;;;-0.90;99.90;;;;;;5014843;28;20232;-63
2024/01/15 03:15:24;;;;;;;15.50;11.85;;;-0.90;99.90;;;;;;5014829;28;20266;-62
2024/01/15 03:17:51;;;;;;;17.45;11.80;;;-0.90;99.90;;;;;;5014427;28;20718;-63
2024/01/15 03:20:18;;;;;;;21.48;10.52;;;-0.90;99.90;;;;;;5014339;28;20310;-63
2024/01/15 03:22:44;;;;;;;21.35;12.63;;;-0.80;99.90;;;;;;5014695;28;20290;-62
2024/01/15 03:25:11;;;;;;;15.47;11.27;;;-0.80;99.90;;;;;;5014725;28;20328;-62
2024/01/15 03:27:38;;;;;;;23.75;12.25;;;-0.80;99.90;;;;;;5014127;28;20561;-63
2024/01/15 03:30:05;;;;;;;17.88;10.32;;;-0.90;99.90;;;;;;5014286;28;20694;-63
2024/01/15 03:32:33;;;;;;;13.73;11.00;;;-0.90;99.90;;;;;;5014103;28;20224;-63
2024/01/15 03:35:00;;;;;;;20.42;12.38;;;-0.80;99.90;;;;;;5014365;28;20218;-63
2024/01/15 03:37:27;;;;;;;17.58;12.23;;;-0.90;99.90;;;;;;5014079;28;20230;-63
2024/01/15 03:39:54;;;;;;;24.25;12.73;;;-0.80;99.90;;;;;;5014177;28;20311;-62
2024/01/15 03:42:20;;;;;;;18.00;10.70;;;-0.80;99.90;;;;;;5014147;28;20207;-63
2024/01/15 03:44:47;;;;;;;18.98;12.30;;;-0.80;99.90;;;;;;5014109;28;20214;-63
2024/01/15 03:47:14;;;;;;;23.92;12.43;;;-0.80;99.90;;;;;;5013977;28;20234;-63
2024/01/15 03:49:42;;;;;;;23.00;13.35;;;-0.80;99.90;;;;;;5014192;28;20315;-63
2024/01/15 03:52:09;;;;;;;22.63;13.60;;;-0.80;99.90;;;;;;5014053;28;20227;-63
2024/01/15 03:54:36;;;;;;;21.85;11.90;;;-0.70;99.90;;;;;;5013897;28;20211;-62
2024/01/15 03:57:03;;;;;;;23.92;12.40;;;-0.80;99.90;;;;;;5013689;28;20224;-63
2024/01/15 03:59:29;;;;;;;22.80;12.50;;;-0.70;99.90;;;;;;5013550;28;20216;-63
2024/01/15 04:01:56;;;;;;;18.17;12.65;;;-0.70;99.90;;;;;;5013431;28;20696;-63
2024/01/15 04:04:23;;;;;;;21.70;11.65;;;-0.70;99.90;;;;;;5014060;28;20299;-63
2024/01/15 04:06:51;;;;;;;21.17;11.90;;;-0.70;99.90;;;;;;5013889;28;20232;-63
2024/01/15 04:09:18;;;;;;;17.80;11.07;;;-0.70;99.90;;;;;;5013817;28;20651;-63
2024/01/15 04:11:45;;;;;;;18.23;12.15;;;-0.70;99.90;;;;;;5012368;28;20302;-62
2024/01/15 04:14:12;;;;;;;17.45;10.68;;;-0.70;99.90;;;;;;5013612;28;20282;-62
2024/01/15 04:16:39;;;;;;;17.42;12.50;;;-0.70;99.90;;;;;;5013435;28;20745;-63
2024/01/15 04:19:06;;;;;;;20.30;11.80;;;-0.70;99.90;;;;;;5013472;28;20298;-63
2024/01/15 04:21:32;;;;;;;19.42;11.20;;;-0.70;99.90;;;;;;5012698;28;20225;-63
2024/01/15 04:24:01;;;;;;;17.05;10.68;;;-0.70;99.90;;;;;;5013429;28;20302;-63
2024/01/15 04:26:27;;;;;;;18.20;9.77;;;-0.60;99.90;;;;;;5013345;28;20236;-63
2024/01/15 04:28:54;;;;;;;15.52;10.13;;;-0.60;99.90;;;;;;5013349;28;20235;-63
2024/01/15 04:31:25;;;;;;;16.02;11.10;;;-0.70;99.90;;;;;;5013258;28;20763;-63
2024/01/15 04:33:51;;;;;;;18.17;12.45;;;-0.70;99.90;;;;;;5013159;28;20232;-62
2024/01/15 04:36:18;;;;;;;19.98;10.77;;;-0.70;99.90;;;;;;5013127;28;20736;-64
2024/01/15 04:38:44;;;;;;;15.45;10.27;;;-0.70;99.90;;;;;;5013297;28;20649;-63
2024/01/15 04:41:14;;;;;;;21.83;14.97;;;-0.70;99.90;;;;;;5013020;28;20232;-63
2024/01/15 04:43:41;;;;;;;17.15;11.15;;;-0.70;99.90;;;;;;5013203;28;20827;-63
2024/01/15 04:46:07;;;;;;;19.08;11.73;;;-0.60;99.90;;;;;;5012866;28;20322;-63
2024/01/15 04:48:34;;;;;;;17.80;11.75;;;-0.70;99.90;;;;;;5013178;28;20218;-63
2024/01/15 04:51:02;;;;;;;16.88;11.30;;;-0.70;99.90;;;;;;5013035;28;20215;-62
2024/01/15 04:53:28;;;;;;;16.10;9.45;;;-0.60;99.90;;;;;;5012974;28;20357;-62
2024/01/15 04:55:55;;;;;;;20.88;13.25;;;-0.70;99.90;;;;;;5012833;28;20207;-63
2024/01/15 04:58:25;;;;;;;18.83;12.27;;;-0.60;99.90;;;;;;5012861;28;20631;-62
2024/01/15 05:00:52;;;;;;;21.75;10.85;;;-0.60;99.90;;;;;;5012593;28;20306;-63
2024/01/15 05:03:19;;;;;;;18.83;13.57;;;-0.60;99.90;;;;;;5012968;28;20598;-64
2024/01/15 05:05:46;;;;;;;20.42;12.27;;;-0.60;99.90;;;;;;5012687;28;20686;-62
2024/01/15 05:08:13;;;;;;;21.50;13.45;;;-0.60;99.90;;;;;;5012766;28;20390;-63
2024/01/15 05:10:39;;;;;;;18.02;11.40;;;-0.60;99.90;;;;;;5012500;28;20207;-62
2024/01/15 05:13:06;;;;;;;21.77;13.18;;;-0.60;99.90;;;;;;5012618;28;20227;-62
2024/01/15 05:15:34;;;;;;;19.77;11.55;;;-0.60;99.90;;;;;;5012416;28;20690;-62
2024/01/15 05:18:01;;;;;;;20.38;12.18;;;-0.60;99.90;;;;;;5012331;28;20254;-62
2024/01/15 05:20:28;;;;;;;18.25;12.68;;;-0.60;99.90;;;;;;5012425;28;20212;-63
2024/01/15 05:22:55;;;;;;;13.85;11.35;;;-0.60;99.90;;;;;;5012410;28;20204;-63
2024/01/15 05:25:22;;;;;;;19.13;11.63;;;-0.50;99.90;;;;;;5012282;28;20208;-62
2024/01/15 05:27:48;;;;;;;21.80;12.30;;;-0.60;99.90;;;;;;5012100;28;20240;-63
2024/01/15 05:30:16;;;;;;;21.38;12.63;;;-0.60;99.90;;;;;;5012030;28;20769;-62
2024/01/15 05:32:44;;;;;;;21.20;12.32;;;-0.60;99.90;;;;;;5012324;28;20595;-63
2024/01/15 05:35:11;;;;;;;20.50;12.10;;;-0.70;99.90;;;;;;5012323;28;20592;-63
2024/01/15 05:37:38;;;;;;;26.63;13.57;;;-0.60;99.90;;;;;;5012097;28;20228;-63
2024/01/15 05:40:05;;;;;;;22.75;12.32;;;-0.60;99.90;;;;;;5012022;28;20302;-63
2024/01/15 05:42:32;;;;;;;20.90;12.05;;;-0.60;99.90;;;;;;5012065;28;20616;-63
2024/01/15 05:45:02;;;;;;;20.95;12.68;;;-0.60;99.90;;;;;;5012352;28;20207;-63
2024/01/15 05:47:29;;;;;;;22.92;12.70;;;-0.60;99.90;;;;;;5011927;28;20761;-63
2024/01/15 05:49:57;;;;;;;19.10;11.57;;;-0.60;99.90;;;;;;5011895;28;20208;-63
2024/01/15 05:52:24;;;;;;;16.83;12.05;;;-0.60;99.90;;;;;;5012001;28;20212;-63
2024/01/15 05:54:51;;;;;;;18.45;12.25;;;-0.60;99.90;;;;;;5011939;28;20265;-63
2024/01/15 05:57:18;;;;;;;27.67;12.80;;;-0.60;99.90;;;;;;5011747;28;20232;-63
2024/01/15 05:59:46;;;;;;;15.48;10.60;;;-0.60;99.90;;;;;;5011693;28;20298;-63
2024/01/15 06:02:12;;;;;;;23.38;12.85;;;-0.70;99.90;;;;;;5012048;28;20295;-63
2024/01/15 06:04:39;;;;;;;20.98;13.63;;;-0.60;99.90;;;;;;5011997;28;20712;-62
2024/01/15 06:07:07;;;;;;;16.55;11.80;;;-0.60;99.90;;;;;;5011754;28;20344;-63
2024/01/15 06:09:34;;;;;;;23.15;13.90;;;-0.70;99.90;;;;;;5011366;28;20218;-62
2024/01/15 06:12:01;;;;;;;26.25;13.27;;;-0.60;99.90;;;;;;5012006;28;20229;-63
2024/01/15 06:14:28;;;;;;;20.38;12.55;;;-0.70;99.90;;;;;;5011598;28;20227;-63
2024/01/15 06:16:55;;;;;;;22.13;13.13;;;-0.60;99.90;;;;;;5011821;28;20314;-63
2024/01/15 06:19:21;;;;;;;19.23;12.55;;;-0.60;99.90;;;;;;5011631;28;20307;-63
2024/01/15 06:21:48;;;;;;;23.27;13.88;;;-0.60;99.90;;;;;;5011705;28;20218;-63
2024/01/15 06:24:17;;;;;;;21.13;11.48;;;-0.60;99.90;;;;;;5011387;28;20208;-63
2024/01/15 06:26:44;;;;;;;18.85;11.40;;;-0.60;99.90;;;;;;5011374;28;20247;-63
2024/01/15 06:29:11;;;;;;;19.95;11.45;;;-0.60;99.90;;;;;;5011509;28;20757;-63
2024/01/15 06:31:38;;;;;;;22.77;13.25;;;-0.60;99.90;;;;;;5011595;28;20768;-63
2024/01/15 06:34:05;;;;;;;19.70;13.77;;;-0.50;99.90;;;;;;5011593;28;20223;-63
2024/01/15 06:36:32;;;;;;;17.88;11.63;;;-0.50;99.90;;;;;;5011491;28;20314;-63
2024/01/15 06:38:58;;;;;;;21.85;12.88;;;-0.60;99.90;;;;;;5011618;28;20294;-63
2024/01/15 06:41:27;;;;;;;22.13;13.95;;;-0.60;99.90;;;;;;5011329;28;20216;-62
2024/01/15 06:43:53;;;;;;;19.70;13.05;;;-0.60;99.90;;;;;;5011761;28;20200;-63
2024/01/15 06:46:24;;;;;;;24.52;13.35;;;-0.60;99.90;;;;;;5015240;28;20712;-63
2024/01/15 06:48:51;;;;;;;21.20;12.43;;;-0.60;99.90;;;;;;5014407;28;20210;-63
2024/01/15 06:51:18;;;;;;;19.73;12.82;;;-0.60;99.90;;;;;;5014321;28;20302;-63
2024/01/15 06:53:44;;;;;;;28.98;15.20;;;-0.70;99.90;;;;;;5015025;28;20713;-63
2024/01/15 06:56:11;;;;;;;21.77;12.45;;;-0.70;99.90;;;;;;5014733;28;20224;-63
2024/01/15 06:58:39;;;;;;;23.55;13.70;;;-0.70;99.90;;;;;;5012381;28;20298;-63
2024/01/15 07:01:07;;;;;;;22.20;14.38;;;-0.70;99.90;;;;;;5011980;28;20239;-63
2024/01/15 07:03:34;;;;;;;17.50;13.45;;;-0.70;99.90;;;;;;5014260;28;20207;-63
2024/01/15 07:06:01;;;;;;;22.10;12.38;;;-0.70;99.90;;;;;;5013406;28;20208;-63
2024/01/15 07:08:28;;;;;;;22.38;12.40;;;-0.80;99.90;;;;;;5014191;28;20282;-63
2024/01/15 07:10:55;;;;;;;26.55;14.05;;;-0.80;99.90;;;;;;5007686;28;20204;-62
2024/01/15 07:13:21;;;;;;;21.27;12.52;;;-0.80;99.90;;;;;;5005108;28;20223;-63
2024/01/15 07:15:50;;;;;;;21.55;11.80;;;-0.80;99.90;;;;;;5005049;28;20207;-63
2024/01/15 07:18:17;;;;;;;25.25;15.27;;;-0.90;99.90;;;;;;5006144;28;20208;-62
2024/01/15 07:20:44;;;;;;;24.48;15.50;;;-0.80;99.90;;;;;;5005938;28;20214;-63
2024/01/15 07:23:12;;;;;;;18.13;10.75;;;-0.90;99.90;;;;;;5014963;28;20203;-63
2024/01/15 07:25:38;;;;;;;18.60;12.90;;;-0.80;99.90;;;;;;5014234;28;20675;-63
2024/01/15 07:28:06;;;;;;;21.58;13.65;;;-0.80;99.90;;;;;;5014232;28;20310;-62
2024/01/15 07:30:33;;;;;;;27.45;13.50;;;-0.80;99.90;;;;;;5031896;22;20203;-65
2024/01/15 07:33:01;;;;;;;19.77;12.68;;;-0.90;99.90;;;;;;5072320;28;20223;-63
2024/01/15 07:35:28;;;;;;;27.08;14.80;;;-0.80;99.90;;;;;;5063264;28;20209;-65
2024/01/15 07:37:55;;;;;;;19.27;11.57;;;-0.90;99.90;;;;;;5067095;28;20632;-66
2024/01/15 07:40:22;;;;;;;22.23;12.57;;;-0.80;99.90;;;;;;5064610;28;20215;-65
2024/01/15 07:42:48;;;;;;;22.67;13.00;;;-0.90;99.90;;;;;;5069669;28;20309;-65
2024/01/15 07:45:16;;;;;;;18.35;12.27;;;-0.80;99.90;;;;;;5064561;28;20325;-64
2024/01/15 07:47:42;;;;;;;24.23;14.60;;;-0.80;99.90;;;;;;5063276;28;20263;-65
2024/01/15 07:50:11;;;;;;;25.55;14.90;;;-0.80;99.90;;;;;;5063021;28;20217;-65
2024/01/15 07:52:38;;;;;;;18.35;11.07;;;-0.80;99.90;;;;;;5062706;28;20253;-65
2024/01/15 07:55:05;;;;;;;20.33;14.30;;;-0.80;99.90;;;;;;5073132;28;20232;-65
2024/01/15 07:57:32;;;;;;;22.08;12.10;;;-0.80;99.90;;;;;;5072481;28;20210;-65
2024/01/15 07:59:59;;;;;;;21.30;12.55;;;-0.80;99.90;;;;;;5073762;28;20206;-65
2024/01/15 08:02:26;;;;;;;19.27;13.43;;;-0.70;99.90;;;;;;5073565;28;20221;-65
2024/01/15 08:04:52;;;;;;;21.90;14.15;;;-0.70;99.90;;;;;;5073397;28;20202;-65
2024/01/15 08:07:21;;;;;;;19.27;11.43;;;-0.60;99.90;;;;;;5069390;28;20208;-65
2024/01/15 08:09:48;;;;;;;21.45;12.52;;;-0.60;99.90;;;;;;5063765;28;20201;-65
2024/01/15 08:12:15;;;;;;;27.40;14.82;;;-0.50;99.90;;;;;;5062021;28;20683;-65
2024/01/15 08:14:42;;;;;;;20.75;12.18;;;-0.50;99.90;;;;;;5065638;28;20267;-64
2024/01/15 08:17:09;;;;;;;17.25;11.70;;;-0.50;99.90;;;;;;5069225;28;20206;-65
2024/01/15 08:19:36;;;;;;;16.58;11.52;;;-0.40;99.90;;;;;;5070027;28;20212;-65
2024/01/15 08:22:03;;;;;;;17.30;10.88;;;-0.30;99.90;;;;;;5068267;28;20233;-65
2024/01/15 08:24:31;;;;;;;13.60;9.57;;;-0.30;99.90;;;;;;5070105;28;20289;-65
2024/01/15 08:26:58;;;;;;;19.00;12.75;;;-0.30;99.90;;;;;;5068364;28;20298;-65
2024/01/15 08:29:25;;;;;;;17.20;10.90;;;-0.30;99.90;;;;;;5069628;28;20212;-65
2024/01/15 08:31:52;;;;;;;23.30;13.23;;;-0.20;99.90;;;;;;5060808;28;20238;-65
2024/01/15 08:34:19;;;;;;;13.80;10.40;;;-0.20;99.90;;;;;;5069152;28;20225;-64
2024/01/15 08:36:46;;;;;;;13.85;9.93;;;-0.20;99.90;;;;;;5060701;28;20272;-65
2024/01/15 08:39:12;;;;;;;17.75;10.65;;;-0.10;99.90;;;;;;5068375;28;20259;-65
2024/01/15 08:41:41;;;;;;;17.50;12.65;;;-0.10;99.90;;;;;;5062836;28;20309;-66
2024/01/15 08:44:07;;;;;;;16.35;11.23;;;-0.10;99.90;;;;;;5062495;28;20285;-65
2024/01/15 08:46:34;;;;;;;15.20;11.60;;;0.00;99.90;;;;;;5068447;28;20682;-64
2024/01/15 08:49:01;;;;;;;20.15;12.63;;;0.00;99.90;;;;;;5061088;28;20206;-65
2024/01/15 08:51:29;;;;;;;17.10;10.70;;;0.00;99.90;;;;;;5062176;28;20688;-65
2024/01/15 08:53:57;;;;;;;17.80;10.75;;;0.10;99.90;;;;;;5055516;28;20218;-65
2024/01/15 08:56:24;;;;;;;15.45;11.77;;;0.10;99.90;;;;;;5064259;28;20210;-65
2024/01/15 08:58:52;;;;;;;21.13;13.35;;;0.10;99.90;;;;;;5067596;28;20225;-64
2024/01/15 09:01:19;;;;;;;23.73;13.70;;;0.20;99.90;;;;;;5067355;28;20237;-64
2024/01/15 09:03:48;;;;;;;20.60;11.52;;;0.20;99.90;;;;;;5065871;28;20747;-65
2024/01/15 09:06:15;;;;;;;16.58;11.07;;;0.20;99.90;;;;;;5064910;28;20214;-64
2024/01/15 09:08:41;;;;;;;21.38;11.60;;;0.10;99.90;;;;;;5068085;28;20217;-65
2024/01/15 09:11:08;;;;;;;16.40;11.30;;;0.10;99.90;;;;;;5063972;28;20229;-65
2024/01/15 09:13:35;;;;;;;20.00;12.85;;;0.10;99.90;;;;;;5063212;28;20260;-65
2024/01/15 09:16:03;;;;;;;16.52;11.15;;;0.10;99.90;;;;;;5066644;28;20202;-65
2024/01/15 09:18:30;;;;;;;16.17;11.82;;;0.00;99.90;;;;;;5067658;28;20662;-64
2024/01/15 09:20:57;;;;;;;16.00;9.15;;;0.00;99.90;;;;;;5065542;28;20309;-64
2024/01/15 09:23:24;;;;;;;16.50;10.82;;;0.00;99.90;;;;;;5065703;28;20288;-64
2024/01/15 09:25:52;;;;;;;18.15;11.00;;;0.10;99.90;;;;;;5067514;28;20193;-65
2024/01/15 09:28:19;;;;;;;24.92;15.90;;;0.00;99.90;;;;;;5070684;28;20205;-64
2024/01/15 09:30:47;;;;;;;23.88;12.70;;;0.10;99.90;;;;;;5070985;28;20606;-65
2024/01/15 09:33:15;;;;;;;13.63;10.23;;;0.10;99.90;;;;;;5070145;28;20210;-65
2024/01/15 09:35:42;;;;;;;15.95;11.70;;;0.10;99.90;;;;;;5070676;28;20595;-65
2024/01/15 09:38:09;;;;;;;16.73;11.27;;;0.10;99.90;;;;;;5062862;28;20200;-65
2024/01/15 09:40:41;;;;;;;17.23;11.32;;;0.10;99.90;;;;;;5070074;28;20768;-64
2024/01/15 09:43:07;;;;;;;19.05;10.90;;;0.10;99.90;;;;;;5064459;28;20217;-63
2024/01/15 09:45:35;;;;;;;17.30;11.32;;;0.20;99.90;;;;;;5066967;28;20672;-64
2024/01/15 09:48:02;;;;;;;15.00;10.40;;;0.20;99.90;;;;;;5071221;28;20289;-63
2024/01/15 09:50:30;;;;;;;17.33;12.27;;;0.20;99.90;;;;;;5058290;28;20699;-65
2024/01/15 09:52:58;;;;;;;22.02;13.27;;;0.30;99.90;;;;;;5050210;28;20680;-64
2024/01/15 09:55:24;;;;;;;16.30;10.80;;;0.30;99.90;;;;;;5064841;28;20226;-64
2024/01/15 09:57:51;;;;;;;13.40;10.60;;;0.30;99.90;;;;;;5069482;28;20576;-65
2024/01/15 10:00:19;;;;;;;16.80;10.20;;;0.40;99.90;;;;;;5068424;28;20202;-65
2024/01/15 10:02:46;;;;;;;22.33;13.75;;;0.40;99.90;;;;;;5067862;28;20726;-64
2024/01/15 10:05:13;;;;;;;21.92;14.30;;;0.40;99.90;;;;;;5070696;28;20197;-65
2024/01/15 10:07:41;;;;;;;14.15;11.55;;;0.40;99.90;;;;;;5071263;28;20408;-65
2024/01/15 10:10:09;;;;;;;16.60;11.93;;;0.40;99.90;;;;;;5070206;28;20209;-64
2024/01/15 10:12:36;;;;;;;18.02;10.95;;;0.40;99.90;;;;;;5070774;28;20304;-66
2024/01/15 10:15:04;;;;;;;22.30;16.10;;;0.50;99.90;;;;;;5070559;28;20224;-64
2024/01/15 10:17:31;;;;;;;18.95;11.85;;;0.50;99.90;;;;;;5066852;28;20205;-65
2024/01/15 10:19:58;;;;;;;22.80;11.70;;;0.40;99.90;;;;;;5071605;28;20209;-65
2024/01/15 10:22:24;;;;;;;16.50;10.75;;;0.50;99.90;;;;;;5074459;28;20749;-65
2024/01/15 10:24:53;;;;;;;20.92;12.70;;;0.50;99.90;;;;;;5074609;28;20194;-65
2024/01/15 10:27:19;;;;;;;14.40;10.68;;;0.60;99.90;;;;;;5074705;28;20220;-64
2024/01/15 10:29:46;;;;;;;13.32;10.98;;;0.60;99.90;;;;;;5074027;28;20292;-65
2024/01/15 10:32:13;;;;;;;14.98;11.13;;;0.70;99.90;;;;;;5073926;28;20229;-64
2024/01/15 10:34:41;;;;;;;14.85;11.32;;;0.80;99.90;;;;;;5074541;28;20225;-65
2024/01/15 10:37:09;;;;;;;15.93;10.10;;;0.80;99.90;;;;;;5074446;28;20209;-65
2024/01/15 10:39:37;;;;;;;12.27;9.68;;;1.00;99.90;;;;;;5074384;28;20216;-66
2024/01/15 10:42:06;;;;;;;10.73;9.15;;;1.00;99.90;;;;;;5067907;28;20308;-65
2024/01/15 10:44:33;;;;;;;20.00;12.20;;;1.10;99.90;;;;;;5068844;28;20744;-64
2024/01/15 10:47:00;;;;;;;12.45;9.60;;;1.20;99.90;;;;;;5057009;28;20606;-66
2024/01/15 10:49:29;;;;;;;12.25;9.02;;;1.40;99.90;;;;;;5074222;28;20202;-65
2024/01/15 10:51:56;;;;;;;12.35;9.32;;;1.60;99.90;;;;;;5071819;28;20304;-66
2024/01/15 10:54:24;;;;;;;15.30;9.73;;;1.70;99.90;;;;;;5071477;28;20648;-66
2024/01/15 10:56:52;;;;;;;16.40;11.13;;;1.90;99.90;;;;;;5060470;28;20306;-65
2024/01/15 10:59:22;;;;;;;13.88;9.90;;;2.10;99.90;;;;;;5059209;28;20203;-65
2024/01/15 11:01:50;;;;;;;10.27;7.72;;;2.10;99.90;;;;;;5054037;28;20605;-64
2024/01/15 11:04:17;;;;;;;11.90;8.45;;;2.10;99.90;;;;;;5054265;28;20206;-65
2024/01/15 11:06:47;;;;;;;12.82;9.48;;;2.10;99.90;;;;;;5053960;28;20206;-66
2024/01/15 11:09:17;;;;;;;15.68;9.82;;;2.10;99.90;;;;;;5054037;28;20210;-65
2024/01/15 11:11:46;;;;;;;11.93;8.77;;;2.10;99.90;;;;;;5053509;28;20233;-65
2024/01/15 11:14:39;;;;;;;17.42;10.77;;;2.20;99.90;;;;;;5053844;28;20244;-65
2024/01/15 11:17:06;;;;;;;13.93;8.85;;;2.20;99.90;;;;;;5065905;28;20205;-65
2024/01/15 11:19:43;;;;;;;12.98;9.00;;;2.20;99.90;;;;;;5066716;28;20213;-65
2024/01/15 11:22:11;;;;;;;13.85;10.20;;;2.20;99.90;;;;;;5054023;28;20226;-66
2024/01/15 11:24:39;;;;;;;13.48;9.43;;;2.30;99.90;;;;;;5061771;28;20193;-65
2024/01/15 11:27:07;;;;;;;13.10;9.52;;;2.30;99.90;;;;;;5063779;28;20205;-66
2024/01/15 11:29:38;;;;;;;16.13;9.82;;;2.30;99.90;;;;;;5061790;28;20198;-66
2024/01/15 11:32:06;;;;;;;14.18;8.85;;;2.30;99.90;;;;;;5060169;28;20279;-66
2024/01/15 11:34:58;;;;;;;14.45;10.15;;;2.30;99.90;;;;;;5053809;28;20714;-66
2024/01/15 11:37:26;;;;;;;13.48;8.10;;;2.20;99.90;;;;;;5053833;28;20300;-65
2024/01/15 11:39:54;;;;;;;8.98;7.65;;;2.20;99.90;;;;;;5053450;28;20301;-66
2024/01/15 11:42:22;;;;;;;13.95;8.60;;;2.10;99.90;;;;;;5053181;28;20340;-66
2024/01/15 11:44:51;;;;;;;11.77;7.95;;;2.00;99.90;;;;;;5053357;28;20256;-64
2024/01/15 11:47:38;;;;;;;11.68;8.10;;;2.00;99.90;;;;;;5062617;28;20676;-65
2024/01/15 11:50:06;;;;;;;11.05;8.25;;;2.00;99.90;;;;;;5056859;28;20289;-65
2024/01/15 11:52:37;;;;;;;12.48;7.70;;;2.00;99.90;;;;;;5060956;28;20754;-65
2024/01/15 11:55:12;;;;;;;12.75;8.00;;;1.90;99.90;;;;;;5056949;28;20305;-65
2024/01/15 11:57:44;;;;;;;10.15;7.65;;;1.90;99.90;;;;;;5064644;28;20202;-66
2024/01/15 12:00:13;;;;;;;8.93;7.50;;;2.00;99.90;;;;;;5066642;28;20681;-65
2024/01/15 12:02:42;;;;;;;11.13;7.82;;;2.00;99.90;;;;;;5069103;28;20606;-65
2024/01/15 12:05:09;;;;;;;12.45;8.95;;;2.00;99.90;;;;;;5061180;28;20207;-64
2024/01/15 12:07:36;;;;;;;13.00;9.23;;;2.00;99.90;;;;;;5067546;28;20312;-65
2024/01/15 12:10:03;;;;;;;12.32;8.00;;;2.00;99.90;;;;;;5064604;28;20568;-65
2024/01/15 12:12:40;;;;;;;10.70;8.43;;;1.90;99.90;;;;;;5072892;28;20316;-66
2024/01/15 12:15:08;;;;;;;11.25;9.15;;;1.80;99.90;;;;;;5066755;28;20223;-65
2024/01/15 12:17:37;;;;;;;11.68;9.85;;;1.80;99.90;;;;;;5070829;28;20233;-65
2024/01/15 12:20:04;;;;;;;12.80;10.38;;;1.70;99.90;;;;;;5064656;28;20675;-65
2024/01/15 12:22:31;;;;;;;12.80;8.63;;;1.60;99.90;;;;;;5062769;28;20304;-66
2024/01/15 12:24:58;;;;;;;16.15;10.15;;;1.60;99.90;;;;;;5058080;28;20289;-65
2024/01/15 12:27:25;;;;;;;17.40;9.73;;;1.60;99.90;;;;;;5069222;28;20216;-64
2024/01/15 12:29:54;;;;;;;12.02;9.30;;;1.60;99.90;;;;;;5057995;28;20584;-65
2024/01/15 12:32:21;;;;;;;12.43;8.98;;;1.60;99.90;;;;;;5063938;28;20312;-65